Time;durP1;ratioP1;P1;durP2;ratioP2;P2;SDS_P1;SDS_P2;PMS_P1;PMS_P2;Temp;Humidity;BMP_temperature;BMP_pressure;BME280_temperature;BME280_humidity;BME280_pressure;Samples;Min_cycle;Max_cycle;Signal;HPM_P1;HPM_P2
2022/04/06 00:01:29;0.00;0.00;0.62;0.00;0.00;0.62;1.20;0.70;;;23.10;24.00;;;;;;2239288;61;20381;-54
2022/04/06 00:04:14;0.00;0.00;0.62;0.00;0.00;0.62;1.20;0.70;;;23.10;24.10;;;;;;2239732;61;20459;-55
2022/04/06 00:06:58;0.00;0.00;0.62;0.00;0.00;0.62;1.40;0.83;;;23.10;24.10;;;;;;2239121;61;20386;-55
2022/04/06 00:09:43;0.00;0.00;0.62;0.00;0.00;0.62;1.47;0.70;;;23.10;24.00;;;;;;2239641;61;20381;-55
2022/04/06 00:12:29;0.00;0.00;0.62;0.00;0.00;0.62;1.50;0.90;;;23.10;24.10;;;;;;2239791;61;20499;-54
2022/04/06 00:15:13;0.00;0.00;0.62;0.00;0.00;0.62;1.67;0.90;;;23.10;24.00;;;;;;2239051;61;20366;-54
2022/04/06 00:17:58;0.00;0.00;0.62;0.00;0.00;0.62;1.30;0.70;;;23.10;24.00;;;;;;2239515;61;20400;-56
2022/04/06 00:20:42;0.00;0.00;0.62;0.00;0.00;0.62;1.40;0.80;;;23.10;24.00;;;;;;2239471;61;20413;-54
2022/04/06 00:23:27;0.00;0.00;0.62;0.00;0.00;0.62;1.63;0.80;;;23.10;24.00;;;;;;2238911;61;20958;-54
2022/04/06 00:26:13;0.00;0.00;0.62;0.00;0.00;0.62;2.07;0.80;;;23.20;24.10;;;;;;2239873;61;20366;-53
2022/04/06 00:28:59;0.00;0.00;0.62;0.00;0.00;0.62;1.40;0.90;;;23.20;24.10;;;;;;2238866;61;20933;-57
2022/04/06 00:31:43;0.00;0.00;0.62;0.00;0.00;0.62;1.20;0.60;;;23.20;24.10;;;;;;2239741;61;20366;-53
2022/04/06 00:37:31;0.00;0.00;0.62;0.00;0.00;0.62;2.67;0.80;;;23.20;24.10;;;;;;2238995;61;20361;-60
2022/04/06 00:40:16;0.00;0.00;0.62;0.00;0.00;0.62;1.97;0.83;;;23.20;24.10;;;;;;2239634;61;20397;-59
2022/04/06 00:43:04;0.00;0.00;0.62;0.00;0.00;0.62;1.70;1.03;;;23.20;24.20;;;;;;2239458;61;20372;-57
2022/04/06 00:45:50;0.00;0.00;0.62;0.00;0.00;0.62;2.67;1.00;;;23.20;24.20;;;;;;2239154;61;20442;-56
2022/04/06 00:48:35;0.00;0.00;0.62;0.00;0.00;0.62;1.40;0.70;;;23.20;24.20;;;;;;2239356;61;20425;-52
2022/04/06 00:51:19;0.00;0.00;0.62;0.00;0.00;0.62;1.57;0.83;;;23.20;24.40;;;;;;2238318;61;20362;-52
2022/04/06 00:54:04;0.00;0.00;0.62;0.00;0.00;0.62;1.50;0.73;;;23.20;24.20;;;;;;2239988;61;20365;-51
2022/04/06 00:56:49;0.00;0.00;0.62;0.00;0.00;0.62;1.37;0.70;;;23.20;24.20;;;;;;2240547;61;20404;-53
2022/04/06 00:59:34;0.00;0.00;0.62;0.00;0.00;0.62;1.30;0.70;;;23.20;24.20;;;;;;2239243;61;20382;-50
2022/04/06 01:02:20;0.00;0.00;0.62;0.00;0.00;0.62;2.43;0.80;;;23.20;24.20;;;;;;2240481;61;20409;-53
2022/04/06 01:05:06;0.00;0.00;0.62;0.00;0.00;0.62;1.70;0.90;;;23.20;24.20;;;;;;2240214;61;20397;-51
2022/04/06 01:07:53;0.00;0.00;0.62;0.00;0.00;0.62;1.70;1.00;;;23.20;24.20;;;;;;2239299;61;20452;-51
2022/04/06 01:10:37;0.00;0.00;0.62;0.00;0.00;0.62;3.20;1.30;;;23.20;24.20;;;;;;2240122;61;20365;-51
2022/04/06 01:13:22;0.00;0.00;0.62;0.00;0.00;0.62;1.80;1.00;;;23.20;24.30;;;;;;2239651;61;20360;-55
2022/04/06 01:16:06;0.00;0.00;0.62;0.00;0.00;0.62;1.70;1.27;;;23.20;24.30;;;;;;2240399;61;20458;-47
2022/04/06 01:18:52;0.00;0.00;0.62;0.00;0.00;0.62;3.00;2.17;;;23.20;24.30;;;;;;2240370;61;20474;-49
2022/04/06 01:21:37;0.00;0.00;0.62;0.00;0.00;0.62;2.33;1.77;;;23.20;24.30;;;;;;2239622;61;20365;-52
2022/04/06 01:24:23;0.00;0.00;0.62;0.00;0.00;0.62;3.13;1.90;;;23.10;24.20;;;;;;2240284;61;20364;-53
2022/04/06 01:27:09;0.00;0.00;0.62;0.00;0.00;0.62;2.33;1.60;;;23.10;24.20;;;;;;2240050;61;20896;-55
2022/04/06 01:29:54;0.00;0.00;0.62;0.00;0.00;0.62;2.57;1.90;;;23.10;24.30;;;;;;2239599;61;20413;-53
2022/04/06 01:32:39;0.00;0.00;0.62;0.00;0.00;0.62;2.77;2.10;;;23.10;24.30;;;;;;2240327;61;20360;-51
2022/04/06 01:35:24;0.00;0.00;0.62;0.00;0.00;0.62;3.50;2.90;;;23.10;24.30;;;;;;2240089;61;20447;-52
2022/04/06 01:38:09;0.00;0.00;0.62;0.00;0.00;0.62;3.60;2.90;;;23.00;24.20;;;;;;2240192;61;20389;-53
2022/04/06 01:40:55;0.00;0.00;0.62;0.00;0.00;0.62;4.37;2.67;;;23.00;24.30;;;;;;2239685;61;20530;-53
2022/04/06 01:43:40;0.00;0.00;0.62;0.00;0.00;0.62;6.93;4.20;;;23.00;24.30;;;;;;2239485;61;20381;-53
2022/04/06 01:46:25;0.00;0.00;0.62;0.00;0.00;0.62;6.43;5.43;;;22.90;24.30;;;;;;2240361;61;20384;-57
2022/04/06 01:52:13;0.00;0.00;0.62;0.00;0.00;0.62;4.20;3.60;;;22.90;24.40;;;;;;2239683;61;20409;-55
2022/04/06 01:55:01;0.00;0.00;0.62;0.00;0.00;0.62;6.20;4.40;;;22.80;24.40;;;;;;2240101;61;20369;-52
2022/04/06 01:57:49;0.00;0.00;0.62;0.00;0.00;0.62;6.90;4.93;;;22.80;24.50;;;;;;2239673;61;20918;-51
2022/04/06 02:00:34;0.00;0.00;0.62;0.00;0.00;0.62;5.30;3.97;;;22.80;24.60;;;;;;2240201;61;20437;-51
2022/04/06 02:03:18;0.00;0.00;0.62;0.00;0.00;0.62;5.70;5.00;;;22.70;24.60;;;;;;2240195;61;20385;-53
2022/04/06 02:06:03;0.00;0.00;0.62;0.00;0.00;0.62;7.77;5.00;;;22.70;24.60;;;;;;2239454;61;20365;-54
2022/04/06 02:08:48;0.00;0.00;0.62;0.00;0.00;0.62;8.63;4.80;;;22.70;24.70;;;;;;2240021;61;20514;-53
2022/04/06 02:11:34;0.00;0.00;0.62;0.00;0.00;0.62;5.27;4.40;;;22.60;24.70;;;;;;2240131;61;20370;-54
2022/04/06 02:14:20;0.00;0.00;0.62;0.00;0.00;0.62;5.87;4.80;;;22.60;24.80;;;;;;2239378;61;20397;-63
2022/04/06 02:17:07;0.00;0.00;0.62;0.00;0.00;0.62;5.77;4.70;;;22.60;24.80;;;;;;2240078;61;20397;-54
2022/04/06 02:19:52;0.00;0.00;0.62;0.00;0.00;0.62;8.90;5.50;;;22.60;24.80;;;;;;2239820;61;20964;-51
2022/04/06 02:22:36;0.00;0.00;0.62;0.00;0.00;0.62;6.23;4.67;;;22.50;24.80;;;;;;2240293;61;20366;-52
2022/04/06 02:25:21;0.00;0.00;0.62;0.00;0.00;0.62;4.20;3.00;;;22.50;24.90;;;;;;2239973;61;20362;-54
2022/04/06 02:28:06;0.00;0.00;0.62;0.00;0.00;0.62;5.23;4.00;;;22.50;24.90;;;;;;2239349;61;20441;-55
2022/04/06 02:30:52;0.00;0.00;0.62;0.00;0.00;0.62;7.30;4.70;;;22.40;25.40;;;;;;2240275;61;20361;-52
2022/04/06 02:33:37;0.00;0.00;0.62;0.00;0.00;0.62;7.20;4.43;;;22.40;24.90;;;;;;2240194;61;20366;-50
2022/04/06 02:36:22;0.00;0.00;0.62;0.00;0.00;0.62;5.53;3.87;;;22.40;24.90;;;;;;2239648;61;20400;-54
2022/04/06 02:39:07;0.00;0.00;0.62;0.00;0.00;0.62;6.00;4.60;;;22.40;24.90;;;;;;2240089;61;20381;-55
2022/04/06 02:41:51;0.00;0.00;0.62;0.00;0.00;0.62;5.30;4.70;;;22.40;24.90;;;;;;2240168;61;20386;-56
2022/04/06 02:44:36;0.00;0.00;0.62;0.00;0.00;0.62;6.57;5.20;;;22.40;25.00;;;;;;2239892;61;20428;-55
2022/04/06 02:47:22;0.00;0.00;0.62;0.00;0.00;0.62;10.80;6.00;;;22.30;25.00;;;;;;2240212;61;20902;-58
2022/04/06 02:50:07;0.00;0.00;0.62;0.00;0.00;0.62;7.37;5.53;;;22.30;25.10;;;;;;2239202;61;20409;-58
2022/04/06 02:52:52;0.00;0.00;0.62;0.00;0.00;0.62;9.17;6.63;;;22.30;25.10;;;;;;2240048;61;20396;-52
2022/04/06 02:55:37;0.00;0.00;0.62;0.00;0.00;0.62;8.37;7.07;;;22.30;25.20;;;;;;2240264;61;20926;-57
2022/04/06 02:58:21;0.00;0.00;0.62;0.00;0.00;0.62;6.70;6.10;;;22.20;25.20;;;;;;2239623;61;20385;-56
2022/04/06 03:01:06;0.00;0.00;0.62;0.00;0.00;0.62;7.90;5.50;;;22.20;25.30;;;;;;2240283;61;20386;-54
2022/04/06 03:03:52;0.00;0.00;0.62;0.00;0.00;0.62;7.80;6.13;;;22.20;25.30;;;;;;2240231;61;20366;-56
2022/04/06 03:06:37;0.00;0.00;0.62;0.00;0.00;0.62;7.10;6.27;;;22.10;25.30;;;;;;2239627;61;20461;-53
2022/04/06 03:09:21;0.00;0.00;0.62;0.00;0.00;0.62;8.30;6.70;;;22.10;25.30;;;;;;2239855;61;20380;-51
2022/04/06 03:12:07;0.00;0.00;0.62;0.00;0.00;0.62;7.57;6.10;;;22.10;25.40;;;;;;2238963;61;20373;-55
2022/04/06 03:14:51;0.00;0.00;0.62;0.00;0.00;0.62;8.23;5.90;;;22.10;25.40;;;;;;2239947;61;20414;-56
2022/04/06 03:17:36;0.00;0.00;0.62;0.00;0.00;0.62;9.53;6.50;;;22.00;25.40;;;;;;2326062;54;20389;-53
2022/04/06 03:20:22;0.00;0.00;0.62;0.00;0.00;0.62;10.27;6.47;;;22.10;25.50;;;;;;2235486;62;20457;-57
2022/04/06 03:23:08;0.00;0.00;0.62;0.00;0.00;0.62;6.77;5.97;;;22.00;25.50;;;;;;2235975;62;20390;-53
2022/04/06 03:25:52;0.00;0.00;0.62;0.00;0.00;0.62;7.67;5.63;;;22.00;25.50;;;;;;2236144;61;20423;-52
2022/04/06 03:28:40;0.00;0.00;0.62;0.00;0.00;0.62;10.20;6.60;;;22.00;25.50;;;;;;2239008;61;20386;-52
2022/04/06 03:31:25;0.00;0.00;0.62;0.00;0.00;0.62;6.97;5.60;;;22.00;25.50;;;;;;2240088;61;20906;-55
2022/04/06 03:34:09;0.00;0.00;0.62;0.00;0.00;0.62;6.97;6.27;;;22.00;25.60;;;;;;2239406;61;20362;-53
2022/04/06 03:36:55;0.00;0.00;0.62;0.00;0.00;0.62;9.60;7.87;;;22.00;25.60;;;;;;2240078;61;20361;-54
2022/04/06 03:39:39;0.00;0.00;0.62;0.00;0.00;0.62;7.77;6.90;;;21.90;25.70;;;;;;2239896;61;20440;-53
2022/04/06 03:42:24;0.00;0.00;0.62;0.00;0.00;0.62;9.10;6.87;;;21.90;25.70;;;;;;2239293;61;20425;-51
2022/04/06 03:45:09;0.00;0.00;0.62;0.00;0.00;0.62;9.70;7.30;;;21.90;25.70;;;;;;2239932;61;20588;-55
2022/04/06 03:47:54;0.00;0.00;0.62;0.00;0.00;0.62;7.80;6.80;;;21.80;25.70;;;;;;2239866;61;20389;-56
2022/04/06 03:50:39;0.00;0.00;0.62;0.00;0.00;0.62;9.60;6.40;;;21.80;25.80;;;;;;2239235;61;20365;-53
2022/04/06 03:53:25;0.00;0.00;0.62;0.00;0.00;0.62;8.77;6.90;;;21.80;25.70;;;;;;2239926;61;20370;-54
2022/04/06 03:56:09;0.00;0.00;0.62;0.00;0.00;0.62;13.00;7.23;;;21.80;25.70;;;;;;2239597;61;20918;-54
2022/04/06 03:58:54;0.00;0.00;0.62;0.00;0.00;0.62;9.33;7.67;;;21.80;25.80;;;;;;2239820;61;20986;-55
2022/04/06 04:01:39;0.00;0.00;0.62;0.00;0.00;0.62;9.70;6.93;;;21.70;25.70;;;;;;2239764;61;20946;-55
2022/04/06 04:04:25;0.00;0.00;0.62;0.00;0.00;0.62;11.33;8.40;;;21.70;25.70;;;;;;2239262;61;20827;-57
2022/04/06 04:07:10;0.00;0.00;0.62;0.00;0.00;0.62;12.30;9.87;;;21.70;25.80;;;;;;2239994;61;20365;-56
2022/04/06 04:09:56;0.00;0.00;0.62;0.00;0.00;0.62;11.50;9.33;;;21.70;25.90;;;;;;2240027;61;20792;-55
2022/04/06 04:12:41;0.00;0.00;0.62;0.00;0.00;0.62;12.17;9.60;;;21.70;25.90;;;;;;2241683;61;20865;-57
2022/04/06 04:15:25;0.00;0.00;0.62;0.00;0.00;0.62;10.40;8.83;;;21.60;25.90;;;;;;2240348;61;20425;-54
2022/04/06 04:18:10;0.00;0.00;0.62;0.00;0.00;0.62;13.07;10.20;;;21.60;25.90;;;;;;2240212;61;20787;-52
2022/04/06 04:21:32;0.00;0.00;0.62;0.00;0.00;0.62;10.67;9.53;;;21.60;26.00;;;;;;2240514;61;20397;-55
2022/04/06 04:23:59;0.00;0.00;0.62;0.00;0.00;0.62;10.37;9.30;;;21.50;25.90;;;;;;2240851;61;20437;-52
2022/04/06 04:26:46;0.00;0.00;0.62;0.00;0.00;0.62;10.30;8.70;;;21.50;26.00;;;;;;2240070;61;20375;-58
2022/04/06 04:29:30;0.00;0.00;0.62;0.00;0.00;0.62;10.50;9.40;;;21.50;26.00;;;;;;2240686;61;20397;-56
2022/04/06 04:32:16;0.00;0.00;0.62;0.00;0.00;0.62;12.37;9.40;;;21.50;26.00;;;;;;2241027;61;20408;-56
2022/04/06 04:35:03;0.00;0.00;0.62;0.00;0.00;0.62;11.37;9.20;;;21.40;26.00;;;;;;2240254;61;20369;-56
2022/04/06 04:37:48;0.00;0.00;0.62;0.00;0.00;0.62;9.37;8.50;;;21.40;26.00;;;;;;2240400;61;20463;-56
2022/04/06 04:40:33;0.00;0.00;0.62;0.00;0.00;0.62;11.23;9.97;;;21.40;26.10;;;;;;2240528;61;20409;-56
2022/04/06 04:43:19;0.00;0.00;0.62;0.00;0.00;0.62;10.30;9.30;;;21.40;26.10;;;;;;2240913;61;20361;-54
2022/04/06 04:46:04;0.00;0.00;0.62;0.00;0.00;0.62;10.90;9.80;;;21.40;26.10;;;;;;2241050;61;20450;-57
2022/04/06 04:48:49;0.00;0.00;0.62;0.00;0.00;0.62;11.47;10.20;;;21.30;26.00;;;;;;2240596;61;20389;-53
2022/04/06 04:51:33;0.00;0.00;0.62;0.00;0.00;0.62;12.80;11.00;;;21.40;26.10;;;;;;2241101;61;20409;-56
2022/04/06 04:54:23;0.00;0.00;0.62;0.00;0.00;0.62;13.63;9.90;;;21.30;26.10;;;;;;2242541;61;20368;-53
2022/04/06 04:57:09;0.00;0.00;0.62;0.00;0.00;0.62;11.83;10.70;;;21.30;26.10;;;;;;2240670;61;20457;-55
2022/04/06 04:59:54;0.00;0.00;0.62;0.00;0.00;0.62;15.47;9.87;;;21.30;26.20;;;;;;2243214;61;20416;-53
2022/04/06 05:02:39;0.00;0.00;0.62;0.00;0.00;0.62;10.87;9.73;;;21.30;26.20;;;;;;2241305;61;20385;-53
2022/04/06 05:05:24;0.00;0.00;0.62;0.00;0.00;0.62;12.30;11.00;;;21.20;26.20;;;;;;2241146;61;20389;-54
2022/04/06 05:08:08;0.00;0.00;0.62;0.00;0.00;0.62;12.33;10.90;;;21.20;26.20;;;;;;2241127;61;20376;-55
2022/04/06 05:10:53;0.00;0.00;0.62;0.00;0.00;0.62;12.10;10.87;;;21.20;26.20;;;;;;2240549;61;20451;-58
2022/04/06 05:13:38;0.00;0.00;0.62;0.00;0.00;0.62;12.57;10.03;;;21.20;26.20;;;;;;2241317;61;20365;-58
2022/04/06 05:16:24;0.00;0.00;0.62;0.00;0.00;0.62;10.50;9.40;;;21.20;26.20;;;;;;2240676;61;20420;-56
2022/04/06 05:19:08;0.00;0.00;0.62;0.00;0.00;0.62;11.00;9.80;;;21.20;26.20;;;;;;2240953;61;20389;-55
2022/04/06 05:21:53;0.00;0.00;0.62;0.00;0.00;0.62;12.23;10.97;;;21.10;26.70;;;;;;2241447;61;20425;-52
2022/04/06 05:24:37;0.00;0.00;0.62;0.00;0.00;0.62;12.07;10.03;;;21.10;26.20;;;;;;2241732;61;20434;-53
2022/04/06 05:27:22;0.00;0.00;0.62;0.00;0.00;0.62;13.17;11.57;;;21.10;26.20;;;;;;2241555;61;20369;-57
2022/04/06 05:30:08;0.00;0.00;0.62;0.00;0.00;0.62;12.10;10.90;;;21.10;26.30;;;;;;2241118;61;20446;-52
2022/04/06 05:32:55;0.00;0.00;0.62;0.00;0.00;0.62;13.17;10.73;;;21.10;26.30;;;;;;2240766;61;20370;-53
2022/04/06 05:35:40;0.00;0.00;0.62;0.00;0.00;0.62;13.53;11.87;;;21.00;26.30;;;;;;2241659;61;20416;-50
2022/04/06 05:38:25;0.00;0.00;0.62;0.00;0.00;0.62;11.10;9.80;;;21.00;26.40;;;;;;2241204;61;20441;-55
2022/04/06 05:41:10;0.00;0.00;0.62;0.00;0.00;0.62;10.77;9.87;;;21.00;26.40;;;;;;2241502;61;20429;-55
2022/04/06 05:43:55;0.00;0.00;0.62;0.00;0.00;0.62;10.50;9.27;;;21.00;26.50;;;;;;2242121;61;20365;-57
2022/04/06 05:46:40;0.00;0.00;0.62;0.00;0.00;0.62;11.63;9.73;;;21.00;26.50;;;;;;2242065;61;20385;-54
2022/04/06 05:49:25;0.00;0.00;0.62;0.00;0.00;0.62;12.30;10.30;;;21.00;26.50;;;;;;2240727;61;20472;-57
2022/04/06 05:52:10;0.00;0.00;0.62;0.00;0.00;0.62;11.33;9.83;;;21.00;26.70;;;;;;2242077;61;20961;-58
2022/04/06 05:54:55;0.00;0.00;0.62;0.00;0.00;0.62;13.63;10.70;;;21.00;26.70;;;;;;2241292;61;20414;-52
2022/04/06 05:57:39;0.00;0.00;0.62;0.00;0.00;0.62;10.37;9.37;;;21.00;26.70;;;;;;2240727;61;20361;-53
2022/04/06 06:00:24;0.00;0.00;0.62;0.00;0.00;0.62;10.23;9.37;;;21.00;26.70;;;;;;2240160;61;20392;-53
2022/04/06 06:03:09;0.00;0.00;0.62;0.00;0.00;0.62;9.23;8.33;;;21.00;26.70;;;;;;2239696;61;20366;-56
2022/04/06 06:05:55;0.00;0.00;0.62;0.00;0.00;0.62;11.17;10.07;;;21.00;26.70;;;;;;2240397;61;20413;-54
2022/04/06 06:08:40;0.00;0.00;0.62;0.00;0.00;0.62;10.17;8.87;;;21.00;26.80;;;;;;2239750;61;20436;-54
2022/04/06 06:11:25;0.00;0.00;0.62;0.00;0.00;0.62;11.33;10.03;;;21.00;26.80;;;;;;2239337;61;20413;-50
2022/04/06 06:14:09;0.00;0.00;0.62;0.00;0.00;0.62;12.53;9.40;;;21.00;26.80;;;;;;2240076;61;20366;-49
2022/04/06 06:16:54;0.00;0.00;0.62;0.00;0.00;0.62;9.20;8.30;;;21.00;26.80;;;;;;2239179;61;20401;-51
2022/04/06 06:19:38;0.00;0.00;0.62;0.00;0.00;0.62;8.70;7.90;;;21.00;26.80;;;;;;2239772;61;20949;-52
2022/04/06 06:22:24;0.00;0.00;0.62;0.00;0.00;0.62;10.03;9.03;;;21.00;26.80;;;;;;2239669;61;20365;-49
2022/04/06 06:25:09;0.00;0.00;0.62;0.00;0.00;0.62;9.20;8.30;;;21.00;26.90;;;;;;2239612;61;20369;-53
2022/04/06 06:27:54;0.00;0.00;0.62;0.00;0.00;0.62;12.70;9.67;;;21.00;26.90;;;;;;2239434;61;20470;-53
2022/04/06 06:30:39;0.00;0.00;0.62;0.00;0.00;0.62;9.53;8.60;;;21.00;26.90;;;;;;2239917;61;20360;-50
2022/04/06 06:33:24;0.00;0.00;0.62;0.00;0.00;0.62;10.87;8.50;;;21.00;26.90;;;;;;2239554;61;20425;-51
2022/04/06 06:36:09;0.00;0.00;0.62;0.00;0.00;0.62;8.70;7.90;;;21.00;27.00;;;;;;2240220;61;20362;-49
2022/04/06 06:38:56;0.00;0.00;0.62;0.00;0.00;0.62;8.70;7.80;;;20.90;26.90;;;;;;2239479;61;20441;-48
2022/04/06 06:41:43;0.00;0.00;0.62;0.00;0.00;0.62;9.57;8.67;;;20.90;26.90;;;;;;2238076;61;20990;-51
2022/04/06 06:44:27;0.00;0.00;0.62;0.00;0.00;0.62;9.10;7.97;;;21.00;26.90;;;;;;2238418;61;20377;-48
2022/04/06 06:47:12;0.00;0.00;0.62;0.00;0.00;0.62;12.13;9.47;;;21.00;27.00;;;;;;2237628;61;20369;-53
2022/04/06 06:49:57;0.00;0.00;0.62;0.00;0.00;0.62;10.43;9.00;;;20.90;26.90;;;;;;2238556;61;20378;-50
2022/04/06 06:52:42;0.00;0.00;0.62;0.00;0.00;0.62;12.50;8.97;;;20.90;26.90;;;;;;2238675;61;20439;-48
2022/04/06 06:55:28;0.00;0.00;0.62;0.00;0.00;0.62;10.00;9.00;;;20.90;26.90;;;;;;2239167;61;20442;-57
2022/04/06 06:58:13;0.00;0.00;0.62;0.00;0.00;0.62;11.17;9.37;;;21.00;27.50;;;;;;2239923;61;20495;-53
2022/04/06 07:00:57;0.00;0.00;0.62;0.00;0.00;0.62;17.27;8.90;;;20.90;26.90;;;;;;2240005;61;20401;-54
2022/04/06 07:03:43;0.00;0.00;0.62;0.00;0.00;0.62;9.43;8.50;;;20.90;27.00;;;;;;2238667;61;20361;-48
2022/04/06 07:06:28;0.00;0.00;0.62;0.00;0.00;0.62;10.43;9.20;;;20.90;27.00;;;;;;2240296;61;20959;-50
2022/04/06 07:09:13;0.00;0.00;0.62;0.00;0.00;0.62;9.70;8.53;;;20.90;27.00;;;;;;2239079;61;21007;-49
2022/04/06 07:11:58;0.00;0.00;0.62;0.00;0.00;0.62;12.70;8.10;;;20.90;26.90;;;;;;2240188;61;20501;-52
2022/04/06 07:14:43;0.00;0.00;0.62;0.00;0.00;0.62;9.63;8.33;;;20.80;26.90;;;;;;2239856;61;21065;-48
2022/04/06 07:17:28;0.00;0.00;0.62;0.00;0.00;0.62;9.20;8.10;;;20.80;26.90;;;;;;2239183;61;20429;-48
2022/04/06 07:20:12;0.00;0.00;0.62;0.00;0.00;0.62;11.10;8.37;;;20.80;26.90;;;;;;2239790;61;20386;-50
2022/04/06 07:22:57;0.00;0.00;0.62;0.00;0.00;0.62;11.07;8.70;;;20.80;26.90;;;;;;2239805;61;20381;-54
2022/04/06 07:25:41;0.00;0.00;0.62;0.00;0.00;0.62;12.93;9.00;;;20.80;26.90;;;;;;2239708;61;20491;-56
2022/04/06 07:28:27;0.00;0.00;0.62;0.00;0.00;0.62;12.93;8.90;;;20.80;27.00;;;;;;2239734;61;20921;-56
2022/04/06 07:31:12;0.00;0.00;0.62;0.00;0.00;0.62;9.00;8.10;;;20.80;26.90;;;;;;2238584;61;20373;-51
2022/04/06 07:33:56;0.00;0.00;0.62;0.00;0.00;0.62;9.13;8.20;;;20.70;26.90;;;;;;2239593;61;20366;-49
2022/04/06 07:36:41;0.00;0.00;0.62;0.00;0.00;0.62;9.70;8.03;;;20.70;26.90;;;;;;2239631;61;20906;-52
2022/04/06 07:39:27;0.00;0.00;0.62;0.00;0.00;0.62;8.73;7.83;;;20.70;26.90;;;;;;2237281;61;20448;-52
2022/04/06 07:42:13;0.00;0.00;0.62;0.00;0.00;0.62;12.93;7.50;;;20.70;26.90;;;;;;2239390;61;20374;-57
2022/04/06 07:44:58;0.00;0.00;0.62;0.00;0.00;0.62;7.97;7.17;;;20.70;26.90;;;;;;2239518;61;20372;-48
2022/04/06 07:47:44;0.00;0.00;0.62;0.00;0.00;0.62;9.53;7.73;;;20.70;26.90;;;;;;2239132;61;20370;-49
2022/04/06 07:50:29;0.00;0.00;0.62;0.00;0.00;0.62;12.80;8.07;;;20.70;26.90;;;;;;2239731;61;20416;-53
2022/04/06 07:53:14;0.00;0.00;0.62;0.00;0.00;0.62;8.53;7.73;;;20.60;26.80;;;;;;2238703;61;20512;-52
2022/04/06 07:56:00;0.00;0.00;0.62;0.00;0.00;0.62;9.97;7.40;;;20.60;26.90;;;;;;2239742;61;20425;-56
2022/04/06 07:58:45;0.00;0.00;0.62;0.00;0.00;0.62;8.90;7.23;;;20.60;26.90;;;;;;2239565;61;20476;-55
2022/04/06 08:01:31;0.00;0.00;0.62;0.00;0.00;0.62;7.20;6.50;;;20.60;26.90;;;;;;2237651;61;20417;-55
2022/04/06 08:04:15;0.00;0.00;0.62;0.00;0.00;0.62;10.43;6.70;;;20.60;26.90;;;;;;2265492;58;20805;-48
2022/04/06 08:07:00;0.00;0.00;0.62;0.00;0.00;0.62;7.27;6.53;;;20.60;26.90;;;;;;2239683;61;20835;-47
2022/04/06 08:09:44;0.00;0.00;0.62;0.00;0.00;0.62;7.00;5.93;;;20.60;26.90;;;;;;2238861;61;20826;-49
2022/04/06 08:12:29;0.00;0.00;0.62;0.00;0.00;0.62;7.80;6.07;;;20.60;26.90;;;;;;2239729;61;20369;-51
2022/04/06 08:15:15;0.00;0.00;0.62;0.00;0.00;0.62;10.63;6.60;;;20.60;26.80;;;;;;2238798;61;20364;-51
2022/04/06 08:18:01;0.00;0.00;0.62;0.00;0.00;0.62;6.20;5.60;;;20.60;26.70;;;;;;2239351;61;20697;-50
2022/04/06 08:20:45;0.00;0.00;0.62;0.00;0.00;0.62;6.17;5.50;;;20.60;26.60;;;;;;2239052;61;20972;-52
2022/04/06 08:23:30;0.00;0.00;0.62;0.00;0.00;0.62;6.30;5.80;;;20.60;26.60;;;;;;2239115;61;20373;-52
2022/04/06 08:26:14;0.00;0.00;0.62;0.00;0.00;0.62;6.00;5.50;;;20.60;26.50;;;;;;2239416;61;20365;-51
2022/04/06 08:28:59;0.00;0.00;0.62;0.00;0.00;0.62;6.40;4.90;;;20.60;26.60;;;;;;2239515;61;20433;-47
2022/04/06 08:31:43;0.00;0.00;0.62;0.00;0.00;0.62;7.97;5.20;;;20.60;26.60;;;;;;2238454;61;20369;-51
2022/04/06 08:34:29;0.00;0.00;0.62;0.00;0.00;0.62;7.73;5.23;;;20.60;26.60;;;;;;2239406;61;20414;-53
2022/04/06 08:37:13;0.00;0.00;0.62;0.00;0.00;0.62;5.90;5.00;;;20.60;26.50;;;;;;2239309;61;20424;-54
2022/04/06 08:39:58;0.00;0.00;0.62;0.00;0.00;0.62;5.27;4.77;;;20.60;26.50;;;;;;2239532;61;20413;-52
2022/04/06 08:42:46;0.00;0.00;0.62;0.00;0.00;0.62;6.40;5.00;;;20.60;26.40;;;;;;2239621;61;20362;-56
2022/04/06 08:45:33;0.00;0.00;0.62;0.00;0.00;0.62;6.80;5.10;;;20.60;26.30;;;;;;2238991;61;20429;-56
2022/04/06 08:48:20;0.00;0.00;0.62;0.00;0.00;0.62;5.70;4.67;;;20.60;26.30;;;;;;2238936;61;20433;-57
2022/04/06 08:51:11;0.00;0.00;0.62;0.00;0.00;0.62;5.83;4.80;;;20.60;26.30;;;;;;2239592;61;20370;-56
2022/04/06 08:53:58;0.00;0.00;0.62;0.00;0.00;0.62;6.13;4.90;;;20.60;26.20;;;;;;2239025;61;20369;-56
2022/04/06 08:56:43;0.00;0.00;0.62;0.00;0.00;0.62;6.70;4.80;;;20.60;26.20;;;;;;2239630;61;20361;-59
2022/04/06 08:59:28;0.00;0.00;0.62;0.00;0.00;0.62;8.50;4.13;;;20.60;26.20;;;;;;2238493;61;20473;-53
2022/04/06 09:02:17;0.00;0.00;0.62;0.00;0.00;0.62;6.60;4.37;;;20.60;26.10;;;;;;2239641;61;20454;-52
2022/04/06 09:05:03;0.00;0.00;0.62;0.00;0.00;0.62;5.87;4.80;;;20.60;26.10;;;;;;2239801;61;20374;-56
2022/04/06 09:07:51;0.00;0.00;0.62;0.00;0.00;0.62;5.73;3.97;;;20.50;26.00;;;;;;2238724;61;20842;-53
2022/04/06 09:10:38;0.00;0.00;0.62;0.00;0.00;0.62;4.10;3.70;;;20.60;26.00;;;;;;2239458;61;20425;-51
2022/04/06 09:13:24;0.00;0.00;0.62;0.00;0.00;0.62;6.53;4.50;;;20.50;25.90;;;;;;2239990;61;20376;-57
2022/04/06 09:16:11;0.00;0.00;0.62;0.00;0.00;0.62;5.43;4.10;;;20.60;26.00;;;;;;2239613;61;20365;-55
2022/04/06 09:18:56;0.00;0.00;0.62;0.00;0.00;0.62;5.70;4.10;;;20.60;26.00;;;;;;2240584;61;20380;-49
2022/04/06 09:21:42;0.00;0.00;0.62;0.00;0.00;0.62;9.17;4.17;;;20.50;25.90;;;;;;2240050;61;20381;-50
2022/04/06 09:24:28;0.00;0.00;0.62;0.00;0.00;0.62;4.70;3.60;;;20.60;26.00;;;;;;2239685;61;20376;-52
2022/04/06 09:27:12;0.00;0.00;0.62;0.00;0.00;0.62;9.53;3.80;;;20.50;25.90;;;;;;2240300;61;20381;-51
2022/04/06 09:29:57;0.00;0.00;0.62;0.00;0.00;0.62;4.43;3.80;;;20.60;26.00;;;;;;2239224;61;20412;-51
2022/04/06 09:32:45;0.00;0.00;0.62;0.00;0.00;0.62;3.70;3.40;;;20.50;25.90;;;;;;2240246;61;20416;-48
2022/04/06 09:35:32;0.00;0.00;0.62;0.00;0.00;0.62;3.57;3.27;;;20.60;26.00;;;;;;2240144;61;20373;-50
2022/04/06 09:38:22;0.00;0.00;0.62;0.00;0.00;0.62;4.97;3.63;;;20.50;25.90;;;;;;2239362;61;20474;-55
2022/04/06 09:41:11;0.00;0.00;0.62;0.00;0.00;0.62;5.53;3.87;;;20.50;25.90;;;;;;2239983;61;20381;-52
2022/04/06 09:44:08;0.00;0.00;0.62;0.00;0.00;0.62;5.23;3.80;;;20.50;25.90;;;;;;2239429;61;20429;-55
2022/04/06 09:50:19;0.00;0.00;0.62;0.00;0.00;0.62;5.23;3.60;;;20.50;25.90;;;;;;2235951;62;20407;-50
2022/04/06 09:53:06;0.00;0.00;0.62;0.00;0.00;0.62;3.80;3.20;;;20.50;25.90;;;;;;2235326;62;20826;-52
2022/04/06 09:55:54;0.00;0.00;0.62;0.00;0.00;0.62;5.83;3.27;;;20.50;25.90;;;;;;2235754;62;21059;-53
2022/04/06 09:58:41;0.00;0.00;0.62;0.00;0.00;0.62;4.93;3.60;;;20.50;25.80;;;;;;2234947;61;20633;-57
2022/04/06 10:01:31;0.00;0.00;0.62;0.00;0.00;0.62;5.57;3.57;;;20.50;25.80;;;;;;2234583;62;20383;-54
2022/04/06 10:04:21;0.00;0.00;0.62;0.00;0.00;0.62;4.80;3.60;;;20.50;25.80;;;;;;2235924;62;20373;-52
2022/04/06 10:07:06;0.00;0.00;0.62;0.00;0.00;0.62;3.73;2.20;;;20.50;25.90;;;;;;2235561;62;20819;-54
2022/04/06 10:09:51;0.00;0.00;0.62;0.00;0.00;0.62;3.70;2.00;;;20.50;25.90;;;;;;2235574;62;20425;-56
2022/04/06 10:12:36;0.00;0.00;0.62;0.00;0.00;0.62;3.90;2.30;;;20.50;25.90;;;;;;2237904;61;20375;-48
2022/04/06 10:15:24;0.00;0.00;0.62;0.00;0.00;0.62;2.50;2.00;;;20.60;26.00;;;;;;2235533;62;20409;-53
2022/04/06 10:18:09;0.00;0.00;0.62;0.00;0.00;0.62;2.43;1.93;;;20.60;26.00;;;;;;2235571;61;20403;-53
2022/04/06 10:20:59;0.00;0.00;0.62;0.00;0.00;0.62;2.57;1.83;;;20.70;26.00;;;;;;2235617;62;20904;-51
2022/04/06 10:23:56;0.00;0.00;0.62;0.00;0.00;0.62;2.30;1.70;;;20.80;26.10;;;;;;2236023;62;20366;-56
2022/04/06 10:27:00;0.00;0.00;0.62;0.00;0.00;0.62;2.40;2.13;;;20.80;26.00;;;;;;2236102;62;20383;-52
2022/04/06 10:30:13;0.00;0.00;0.62;0.00;0.00;0.62;3.20;1.80;;;20.80;26.00;;;;;;2235108;62;20402;-49
2022/04/06 10:32:59;0.00;0.00;0.62;0.00;0.00;0.62;2.20;1.90;;;20.90;26.00;;;;;;2236059;62;20410;-53
2022/04/06 10:35:43;0.00;0.00;0.62;0.00;0.00;0.62;2.60;1.80;;;21.00;26.00;;;;;;2235579;62;20367;-53
2022/04/06 10:38:28;0.00;0.00;0.62;0.00;0.00;0.62;2.33;2.13;;;21.00;26.00;;;;;;2235609;61;20930;-49
2022/04/06 10:41:12;0.00;0.00;0.62;0.00;0.00;0.62;2.90;1.90;;;21.00;26.00;;;;;;2236137;62;20438;-53
2022/04/06 10:43:57;0.00;0.00;0.62;0.00;0.00;0.62;2.40;1.80;;;21.10;26.00;;;;;;2235320;62;20899;-49
2022/04/06 10:46:42;0.00;0.00;0.62;0.00;0.00;0.62;2.83;2.00;;;21.10;26.00;;;;;;2236020;62;20458;-50
2022/04/06 10:49:28;0.00;0.00;0.62;0.00;0.00;0.62;2.10;1.90;;;21.10;25.90;;;;;;2235348;62;20920;-54
2022/04/06 10:52:23;0.00;0.00;0.62;0.00;0.00;0.62;2.47;1.80;;;21.20;26.00;;;;;;2235141;62;20366;-50
2022/04/06 10:55:09;0.00;0.00;0.62;0.00;0.00;0.62;2.43;1.70;;;21.30;26.00;;;;;;2237616;61;20511;-56
2022/04/06 10:58:00;0.00;0.00;0.62;0.00;0.00;0.62;3.00;1.60;;;21.30;26.00;;;;;;2239300;61;20436;-53
2022/04/06 11:01:15;0.00;0.00;0.62;0.00;0.00;0.62;3.30;2.07;;;21.30;26.00;;;;;;2240038;61;20449;-54
2022/04/06 11:04:03;0.00;0.00;0.62;0.00;0.00;0.62;1.80;1.60;;;21.40;26.00;;;;;;2235858;62;20834;-59